createdAt,value
2022-12-13T00:02:07.319Z,4.90
2022-12-13T00:07:12.382Z,5.01
2022-12-13T00:12:16.631Z,4.90
2022-12-13T00:17:20.191Z,4.89
2022-12-13T00:22:24.925Z,4.88
2022-12-13T00:27:28.491Z,4.55
2022-12-13T00:32:32.063Z,4.68
2022-12-13T00:37:37.070Z,4.87
2022-12-13T00:42:40.122Z,4.85
2022-12-13T00:47:43.530Z,4.57
2022-12-13T00:52:48.427Z,4.82
2022-12-13T00:57:52.051Z,4.57
2022-12-13T01:02:55.565Z,4.41
2022-12-13T01:08:00.544Z,4.32
2022-12-13T01:13:03.890Z,4.43
2022-12-13T01:18:07.553Z,4.46
2022-12-13T01:23:12.297Z,4.44
2022-12-13T01:28:15.861Z,4.60
2022-12-13T01:33:19.317Z,4.63
2022-12-13T01:38:26.215Z,4.74
2022-12-13T01:43:50.982Z,4.51
2022-12-13T01:48:59.891Z,4.48
2022-12-13T01:54:07.726Z,4.85
2022-12-13T01:59:14.263Z,4.63
2022-12-13T02:04:22.272Z,4.72
2022-12-13T02:09:28.037Z,4.56
2022-12-13T02:14:31.589Z,4.63
2022-12-13T02:20:31.090Z,4.66
2022-12-13T02:25:54.980Z,4.89
2022-12-13T02:31:07.717Z,4.77
2022-12-13T02:36:18.951Z,4.85
2022-12-13T02:42:21.316Z,4.53
2022-12-13T02:48:22.222Z,4.75
2022-12-13T02:53:27.003Z,4.73
2022-12-13T02:58:34.561Z,4.66
2022-12-13T03:03:47.437Z,4.46
2022-12-13T03:08:58.439Z,4.53
2022-12-13T03:14:09.091Z,4.49
2022-12-13T03:19:15.303Z,4.68
2022-12-13T03:24:20.441Z,4.74
2022-12-13T03:29:25.093Z,4.77
2022-12-13T03:34:43.697Z,4.96
2022-12-13T03:39:49.312Z,4.83
2022-12-13T03:44:52.801Z,4.87
2022-12-13T03:49:57.919Z,4.84
2022-12-13T03:55:21.328Z,4.74
2022-12-13T04:00:25.208Z,4.81
2022-12-13T04:05:30.783Z,4.80
2022-12-13T04:10:35.658Z,4.73
2022-12-13T04:15:38.974Z,4.71
2022-12-13T04:20:43.975Z,4.72
2022-12-13T04:25:47.649Z,4.61
2022-12-13T04:30:53.693Z,4.68
2022-12-13T04:35:58.772Z,4.89
2022-12-13T04:41:09.934Z,5.00
2022-12-13T04:46:13.349Z,4.81
2022-12-13T04:51:18.795Z,4.65
2022-12-13T04:56:22.343Z,4.82
2022-12-13T05:01:26.030Z,4.58
2022-12-13T05:06:31.309Z,4.77
2022-12-13T05:11:35.499Z,4.79
2022-12-13T05:16:39.695Z,4.62
2022-12-13T05:21:44.758Z,4.54
2022-12-13T05:26:48.040Z,4.80
2022-12-13T05:31:51.679Z,4.82
2022-12-13T05:36:56.847Z,4.91
2022-12-13T05:42:02.715Z,4.99
2022-12-13T05:47:06.680Z,4.95
2022-12-13T05:52:19.017Z,5.07
2022-12-13T05:57:22.599Z,4.76
2022-12-13T06:02:26.018Z,4.91
2022-12-13T06:07:31.222Z,5.08
2022-12-13T06:12:35.904Z,5.21
2022-12-13T06:17:47.009Z,5.05
2022-12-13T06:22:51.774Z,4.95
2022-12-13T06:27:55.424Z,4.95
2022-12-13T06:32:58.897Z,4.99
2022-12-13T06:38:03.903Z,5.35
2022-12-13T06:43:15.902Z,5.17
2022-12-13T06:48:20.425Z,5.15
2022-12-13T06:53:25.722Z,5.33
2022-12-13T06:58:29.281Z,5.28
2022-12-13T07:03:33.033Z,5.31
2022-12-13T07:08:38.309Z,5.39
2022-12-13T07:13:41.705Z,5.40
2022-12-13T07:18:45.224Z,5.49
2022-12-13T07:23:54.878Z,5.40
2022-12-13T07:28:59.211Z,5.24
2022-12-13T07:34:02.791Z,5.12
2022-12-13T07:39:07.740Z,5.44
2022-12-13T07:44:10.769Z,5.39
2022-12-13T07:49:14.247Z,5.36
2022-12-13T07:54:19.185Z,5.27
2022-12-13T07:59:28.364Z,5.66
2022-12-13T08:04:38.125Z,5.46
2022-12-13T08:09:49.525Z,5.72
2022-12-13T08:14:56.014Z,5.76
2022-12-13T08:19:59.403Z,5.39
2022-12-13T08:25:04.673Z,5.71
2022-12-13T08:30:09.515Z,5.59
2022-12-13T08:35:13.036Z,5.28
2022-12-13T08:40:18.258Z,4.76
2022-12-13T08:45:21.767Z,4.92
2022-12-13T08:50:25.274Z,4.95
2022-12-13T08:55:32.230Z,4.88
2022-12-13T09:00:36.776Z,4.73
2022-12-13T09:05:40.282Z,4.84
2022-12-13T09:10:46.191Z,5.05
2022-12-13T09:15:49.662Z,4.83
2022-12-13T09:20:53.583Z,5.03
2022-12-13T09:26:17.502Z,4.84
2022-12-13T09:31:21.595Z,4.89
2022-12-13T09:36:26.445Z,4.80
2022-12-13T09:41:41.071Z,5.11
2022-12-13T09:46:47.464Z,5.00
2022-12-13T09:52:11.683Z,5.02
2022-12-13T09:57:31.925Z,4.97
2022-12-13T10:02:43.800Z,4.69
2022-12-13T10:07:47.619Z,4.83
2022-12-13T10:12:59.176Z,5.06
2022-12-13T10:18:05.911Z,4.57
2022-12-13T10:23:33.111Z,4.31
2022-12-13T10:28:35.300Z,4.72
2022-12-13T10:33:46.330Z,4.80
2022-12-13T10:38:50.996Z,4.52
2022-12-13T10:44:23.143Z,4.48
2022-12-13T10:49:29.487Z,4.50
2022-12-13T10:54:38.825Z,4.39
2022-12-13T10:59:53.980Z,4.16
2022-12-13T11:04:59.011Z,4.17
2022-12-13T11:10:23.681Z,4.36
2022-12-13T11:15:34.874Z,4.16
2022-12-13T11:20:39.716Z,4.21
2022-12-13T11:25:45.206Z,4.26
2022-12-13T11:31:01.490Z,4.42
2022-12-13T11:36:17.483Z,4.54
2022-12-13T11:41:31.367Z,4.70
2022-12-13T11:46:42.244Z,4.79
2022-12-13T11:51:50.429Z,4.44
2022-12-13T11:57:00.611Z,4.56
2022-12-13T12:02:16.422Z,4.44
2022-12-13T12:07:32.862Z,4.37
2022-12-13T12:12:39.179Z,4.37
2022-12-13T12:17:44.356Z,4.46
2022-12-13T12:22:54.532Z,4.67
2022-12-13T12:28:07.005Z,4.57
2022-12-13T12:33:22.461Z,4.57
2022-12-13T12:38:48.112Z,4.41
2022-12-13T12:43:57.743Z,4.22
2022-12-13T12:49:34.433Z,4.54
2022-12-13T12:54:45.547Z,4.58
2022-12-13T13:00:03.647Z,4.43
2022-12-13T13:05:20.660Z,4.57
2022-12-13T13:10:26.824Z,4.44
2022-12-13T13:15:56.637Z,4.59
2022-12-13T13:21:42.127Z,4.62
2022-12-13T13:26:49.257Z,4.17
2022-12-13T13:32:02.109Z,4.16
2022-12-13T13:37:06.737Z,4.26
2022-12-13T13:42:19.503Z,4.49
2022-12-13T13:47:42.155Z,4.39
2022-12-13T13:52:58.883Z,4.24
2022-12-13T13:58:29.152Z,4.14
2022-12-13T14:04:06.190Z,4.03
2022-12-13T14:09:49.527Z,3.80
2022-12-13T14:15:34.242Z,3.85
2022-12-13T14:20:46.928Z,3.78
2022-12-13T14:26:05.955Z,3.67
2022-12-13T14:31:22.059Z,3.84
2022-12-13T14:36:32.553Z,3.98
2022-12-13T14:41:47.241Z,4.07
2022-12-13T14:46:55.217Z,4.01
2022-12-13T14:52:03.923Z,4.16
2022-12-13T14:57:07.951Z,3.90
2022-12-13T15:02:18.738Z,4.04
2022-12-13T15:07:39.092Z,3.97
2022-12-13T15:12:43.560Z,3.80
2022-12-13T15:17:48.638Z,3.92
2022-12-13T15:23:00.086Z,3.88
2022-12-13T15:28:04.437Z,3.68
2022-12-13T15:33:19.384Z,4.02
2022-12-13T15:38:28.761Z,3.81
2022-12-13T15:43:38.908Z,3.89
2022-12-13T15:48:48.153Z,3.80
2022-12-13T15:54:08.071Z,3.74
2022-12-13T15:59:27.218Z,4.17
2022-12-13T16:04:34.105Z,3.99
2022-12-13T16:09:39.896Z,3.82
2022-12-13T16:14:53.459Z,3.83
2022-12-13T16:20:16.593Z,3.95
2022-12-13T16:25:20.907Z,3.90
2022-12-13T16:30:26.902Z,4.02
2022-12-13T16:35:31.871Z,4.19
2022-12-13T16:40:36.038Z,4.11
2022-12-13T16:45:43.166Z,4.21
2022-12-13T16:50:57.700Z,4.36
2022-12-13T16:56:01.739Z,4.34
2022-12-13T17:01:10.465Z,4.49
2022-12-13T17:06:18.150Z,4.30
2022-12-13T17:11:21.883Z,4.15
2022-12-13T17:16:25.584Z,4.26
2022-12-13T17:21:30.765Z,4.32
2022-12-13T17:26:35.476Z,4.20
2022-12-13T17:31:39.702Z,4.25
2022-12-13T17:36:45.175Z,4.37
2022-12-13T17:41:54.444Z,4.18
2022-12-13T17:46:59.471Z,4.16
2022-12-13T17:52:04.564Z,4.27
2022-12-13T17:57:10.633Z,4.11
2022-12-13T18:02:15.079Z,4.07
2022-12-13T18:07:20.397Z,4.20
2022-12-13T18:12:23.781Z,4.02
2022-12-13T18:17:46.562Z,4.00
2022-12-13T18:22:52.319Z,4.12
2022-12-13T18:28:00.778Z,4.40
2022-12-13T18:33:05.605Z,3.93
2022-12-13T18:38:10.959Z,4.00
2022-12-13T18:43:14.438Z,3.80
2022-12-13T18:48:18.123Z,3.80
2022-12-13T18:53:23.306Z,3.93
2022-12-13T18:58:27.223Z,3.70
2022-12-13T19:03:31.148Z,3.79
2022-12-13T19:08:36.937Z,3.65
2022-12-13T19:13:40.516Z,3.47
2022-12-13T19:18:44.680Z,3.43
2022-12-13T19:23:56.479Z,3.58
2022-12-13T19:29:01.214Z,3.40
2022-12-13T19:34:04.792Z,3.47
2022-12-13T19:39:11.636Z,3.55
2022-12-13T19:44:15.559Z,3.55
2022-12-13T19:49:19.388Z,3.30
2022-12-13T19:54:26.121Z,3.45
2022-12-13T19:59:29.836Z,3.38
2022-12-13T20:04:33.569Z,3.37
2022-12-13T20:09:39.785Z,3.56
2022-12-13T20:14:43.304Z,3.47
2022-12-13T20:19:47.192Z,3.38
2022-12-13T20:24:52.995Z,3.42
2022-12-13T20:29:56.698Z,3.68
2022-12-13T20:35:00.236Z,3.18
2022-12-13T20:40:05.801Z,3.21
2022-12-13T20:45:11.006Z,3.12
2022-12-13T20:50:15.655Z,2.95
2022-12-13T20:55:21.152Z,3.02
2022-12-13T21:00:25.446Z,2.88
2022-12-13T21:05:29.007Z,2.78
2022-12-13T21:10:34.061Z,2.57
2022-12-13T21:15:37.636Z,2.68
2022-12-13T21:20:41.340Z,2.44
2022-12-13T21:25:46.210Z,2.23
2022-12-13T21:30:52.061Z,1.87
2022-12-13T21:35:55.747Z,1.76
2022-12-13T21:41:00.824Z,1.82
2022-12-13T21:46:06.481Z,1.67
2022-12-13T21:51:13.387Z,1.46
2022-12-13T21:56:38.854Z,1.54
2022-12-13T22:02:03.248Z,1.64
2022-12-13T22:07:08.407Z,1.38
2022-12-13T22:12:21.105Z,1.16
2022-12-13T22:17:33.060Z,1.47
2022-12-13T22:22:40.428Z,1.00
2022-12-13T22:27:45.547Z,0.80
2022-12-13T22:32:49.050Z,0.53
2022-12-13T22:37:54.297Z,0.60
2022-12-13T22:43:01.450Z,0.69
2022-12-13T22:48:05.735Z,0.65
2022-12-13T22:53:09.147Z,0.57
2022-12-13T22:58:14.186Z,0.65
2022-12-13T23:03:17.615Z,0.44
2022-12-13T23:08:21.299Z,0.31
2022-12-13T23:13:26.194Z,-0.22
2022-12-13T23:18:30.213Z,0.40
2022-12-13T23:23:34.246Z,0.37
2022-12-13T23:28:40.906Z,0.27
2022-12-13T23:33:46.463Z,0.30
2022-12-13T23:38:50.665Z,0.58
2022-12-13T23:43:57.867Z,0.15
2022-12-13T23:49:02.610Z,0.01
2022-12-13T23:54:06.172Z,0.27
2022-12-13T23:59:11.183Z,0.68
